Time;durP1;ratioP1;P1;durP2;ratioP2;P2;SDS_P1;SDS_P2;PMS_P1;PMS_P2;Temp;Humidity;BMP_temperature;BMP_pressure;BME280_temperature;BME280_humidity;BME280_pressure;Samples;Min_cycle;Max_cycle;Signal;HPM_P1;HPM_P2
2021/12/13 00:00:17;;;;;;;24.10;18.67;;;4.00;99.90;;;2.53;100.00;98940.78;5071942;28;20461;-80
2021/12/13 00:02:57;;;;;;;20.93;16.87;;;4.00;99.90;;;2.60;100.00;98930.41;5099978;28;20476;-81
2021/12/13 00:05:36;;;;;;;23.13;17.60;;;4.00;99.90;;;2.59;100.00;98938.53;5098836;28;20456;-79
2021/12/13 00:08:09;;;;;;;26.10;17.53;;;4.10;99.90;;;1.76;100.00;98823.31;5084646;28;20462;-81
2021/12/13 00:10:51;;;;;;;23.50;16.83;;;4.00;99.90;;;2.57;100.00;98930.66;5100198;28;20513;-80
2021/12/13 00:13:28;;;;;;;22.37;17.50;;;4.10;99.90;;;2.50;100.00;98938.41;5100296;28;20528;-83
2021/12/13 00:16:00;;;;;;;24.73;17.80;;;4.00;99.90;;;2.58;100.00;98937.72;5097693;28;20455;-80
2021/12/13 00:18:33;;;;;;;25.97;17.57;;;4.00;99.90;;;2.62;100.00;98922.22;5106040;28;20800;-81
2021/12/13 00:21:09;;;;;;;23.43;16.90;;;4.10;99.90;;;2.40;100.00;98897.56;5115986;27;20447;-81
2021/12/13 00:23:47;;;;;;;25.37;17.77;;;4.10;99.90;;;2.55;100.00;98924.63;5090331;28;20558;-81
2021/12/13 00:26:24;;;;;;;24.37;18.67;;;4.00;99.90;;;2.79;100.00;98934.84;5098442;28;20459;-80
2021/12/13 00:28:51;;;;;;;24.47;17.33;;;4.10;99.90;;;2.76;100.00;98919.13;5094470;28;20452;-80
2021/12/13 00:31:41;;;;;;;19.00;15.50;;;4.10;99.90;;;2.69;100.00;98931.38;5113012;28;20456;-81
2021/12/13 00:34:29;;;;;;;22.53;15.07;;;4.10;99.90;;;2.53;100.00;98908.78;5096564;28;20496;-81
2021/12/13 00:37:07;;;;;;;20.87;16.17;;;4.10;99.90;;;2.78;100.00;98927.81;5096775;28;20467;-80
2021/12/13 00:39:46;;;;;;;21.20;16.17;;;4.20;99.90;;;2.81;100.00;98924.91;5099739;28;20444;-83
2021/12/13 00:42:19;;;;;;;20.67;14.37;;;4.30;99.90;;;2.80;100.00;98943.72;5112458;28;20519;-79
2021/12/13 00:44:50;;;;;;;19.10;15.87;;;4.30;99.90;;;2.64;100.00;98910.44;5118432;28;20436;-80
2021/12/13 00:47:24;;;;;;;24.37;17.70;;;4.30;99.90;;;2.78;100.00;98933.16;5097004;28;20476;-80
2021/12/13 00:50:09;;;;;;;20.53;16.20;;;4.30;99.90;;;2.73;100.00;98947.91;5130390;28;20425;-78
2021/12/13 00:52:41;;;;;;;21.03;15.20;;;4.20;99.90;;;2.48;100.00;98911.00;5107998;28;20456;-80
2021/12/13 00:55:13;;;;;;;22.23;15.13;;;4.20;99.90;;;2.51;100.00;98907.22;5112027;28;20531;-80
2021/12/13 00:57:45;;;;;;;20.87;16.07;;;4.20;99.90;;;2.66;100.00;98937.81;5090408;28;20479;-81
2021/12/13 01:00:23;;;;;;;24.60;16.73;;;4.20;99.90;;;2.79;100.00;98948.19;5120835;28;20445;-79
2021/12/13 01:02:58;;;;;;;23.73;17.57;;;4.30;99.90;;;3.00;100.00;98949.88;5100306;28;20471;-80
2021/12/13 01:06:03;;;;;;;28.70;18.20;;;4.30;99.90;;;2.81;100.00;98943.59;5104244;28;20466;-80
2021/12/13 01:10:09;;;;;;;24.50;18.30;;;4.30;99.90;;;2.85;100.00;98948.63;5072832;28;20463;-80
2021/12/13 01:12:37;;;;;;;22.70;17.47;;;4.20;99.90;;;3.01;100.00;98943.53;5112038;28;20452;-80
2021/12/13 01:15:12;;;;;;;24.70;17.60;;;4.30;99.90;;;2.82;100.00;98934.59;5108407;28;20969;-83
2021/12/13 01:17:53;;;;;;;23.17;17.23;;;4.30;99.90;;;2.79;100.00;98934.03;5104247;28;20439;-81
2021/12/13 01:20:30;;;;;;;23.37;18.10;;;4.30;99.90;;;2.90;100.00;98947.22;5100227;28;20519;-79
2021/12/13 01:23:14;;;;;;;27.23;17.93;;;4.30;99.90;;;2.89;100.00;98955.34;5096353;28;20468;-80
2021/12/13 01:25:49;;;;;;;25.23;18.43;;;4.40;99.90;;;2.79;100.00;98940.19;5114504;28;21155;-81
2021/12/13 01:28:26;;;;;;;22.37;17.77;;;4.40;99.90;;;2.97;100.00;98964.34;5075519;28;20447;-82
2021/12/13 01:30:58;;;;;;;26.67;18.43;;;4.40;99.90;;;3.07;100.00;98968.81;5098186;28;20507;-81
2021/12/13 01:33:29;;;;;;;26.87;16.97;;;4.50;99.90;;;2.91;100.00;98964.06;5056823;28;20491;-82
2021/12/13 01:36:01;;;;;;;29.23;18.90;;;4.40;99.90;;;2.66;100.00;98945.00;5106661;28;20780;-81
2021/12/13 01:38:36;;;;;;;30.83;19.10;;;4.30;99.90;;;2.59;100.00;98933.19;5090249;28;20476;-81
2021/12/13 01:41:11;;;;;;;31.67;19.30;;;4.30;99.90;;;2.71;100.00;98948.06;5109337;28;20527;-81
2021/12/13 01:43:48;;;;;;;29.67;18.57;;;4.20;99.90;;;2.86;100.00;98955.66;5114405;28;20462;-81
2021/12/13 01:46:17;;;;;;;28.40;18.07;;;4.30;99.90;;;2.86;100.00;98961.00;5111627;28;20520;-82
2021/12/13 01:48:52;;;;;;;27.00;19.20;;;4.30;99.90;;;2.87;100.00;98960.00;5111938;28;20460;-80
2021/12/13 01:51:25;;;;;;;29.77;18.60;;;4.30;99.90;;;2.70;100.00;98957.06;5110430;28;20481;-81
2021/12/13 01:53:58;;;;;;;28.00;18.83;;;4.30;99.90;;;2.67;100.00;98949.34;5111501;28;20463;-81
2021/12/13 01:56:52;;;;;;;30.50;18.63;;;4.20;99.90;;;2.64;100.00;98930.94;5092747;28;20444;-79
2021/12/13 01:59:42;;;;;;;26.90;18.07;;;4.30;99.90;;;3.08;100.00;98946.47;5092832;28;20461;-81
2021/12/13 02:02:23;;;;;;;30.07;18.73;;;4.40;99.90;;;2.81;100.00;98924.91;5115729;28;20451;-81
2021/12/13 02:05:04;;;;;;;30.20;19.33;;;4.40;99.90;;;2.87;100.00;98949.31;5130017;28;20449;-82
2021/12/13 02:18:04;;;;;;;30.27;19.70;;;4.50;99.90;;;2.93;100.00;98943.41;5102196;28;20965;-79
2021/12/13 02:20:38;;;;;;;28.77;19.50;;;4.40;99.90;;;2.96;100.00;98937.78;5103474;28;20459;-80
2021/12/13 02:23:08;;;;;;;29.90;19.97;;;4.40;99.90;;;2.91;100.00;98942.69;5081437;28;20460;-80
2021/12/13 02:25:39;;;;;;;29.00;18.50;;;4.40;99.90;;;2.98;100.00;98949.16;5091962;28;20449;-80
2021/12/13 02:28:10;;;;;;;34.63;21.10;;;4.40;99.90;;;2.95;100.00;98938.75;5096240;28;20474;-80
2021/12/13 02:30:45;;;;;;;30.00;19.53;;;4.40;99.90;;;3.00;100.00;98947.19;5096137;28;20527;-80
2021/12/13 02:33:18;;;;;;;31.87;19.70;;;4.50;99.90;;;2.91;100.00;98926.69;5103720;28;20454;-80
2021/12/13 02:35:52;;;;;;;25.83;19.10;;;4.50;99.90;;;3.09;100.00;98948.97;5086977;28;20495;-80
2021/12/13 02:38:23;;;;;;;30.53;20.77;;;4.50;99.90;;;3.03;100.00;98954.91;5095745;28;20506;-80
2021/12/13 02:40:52;;;;;;;35.50;21.40;;;4.50;99.90;;;2.93;100.00;98951.41;5089379;28;20456;-80
2021/12/13 02:43:28;;;;;;;30.73;20.50;;;4.40;99.90;;;2.86;100.00;98943.13;5096688;28;20488;-81
2021/12/13 02:46:00;;;;;;;30.07;19.73;;;4.40;99.90;;;3.02;100.00;98958.56;5086563;28;20460;-78
2021/12/13 02:48:36;;;;;;;27.90;19.30;;;4.40;99.90;;;3.22;100.00;98958.50;5093040;28;20476;-79
2021/12/13 02:51:13;;;;;;;33.90;19.63;;;4.50;99.90;;;3.01;100.00;98950.69;5091375;28;20444;-80
2021/12/13 02:53:47;;;;;;;31.43;19.40;;;4.50;99.90;;;3.15;100.00;98958.25;5094294;28;20559;-80
2021/12/13 02:56:17;;;;;;;29.90;17.87;;;4.50;99.90;;;3.32;100.00;98954.00;5099453;28;20460;-79
2021/12/13 02:58:45;;;;;;;27.40;19.47;;;4.60;99.90;;;2.96;100.00;98924.44;5100651;28;20487;-81
2021/12/13 03:01:19;;;;;;;31.77;19.70;;;4.60;99.90;;;3.12;100.00;98961.22;5079826;28;20454;-81
2021/12/13 03:03:54;;;;;;;30.40;19.50;;;4.60;99.90;;;3.13;100.00;98949.53;5095372;28;20483;-79
2021/12/13 03:06:34;;;;;;;30.40;17.47;;;4.60;99.90;;;3.24;100.00;98964.53;5105533;28;20451;-82
2021/12/13 03:09:12;;;;;;;25.93;16.90;;;4.60;99.90;;;3.17;100.00;98942.91;5101099;28;20871;-81
2021/12/13 03:11:52;;;;;;;25.07;16.40;;;4.60;99.90;;;3.28;100.00;98933.06;5119899;27;20514;-80
2021/12/13 03:14:23;;;;;;;25.83;17.17;;;4.70;99.90;;;3.44;100.00;98962.66;5091768;28;20864;-80
2021/12/13 03:16:57;;;;;;;26.57;17.57;;;4.80;99.90;;;3.14;100.00;98918.34;5095984;28;20793;-80
2021/12/13 03:19:37;;;;;;;28.57;16.17;;;4.80;99.90;;;3.27;100.00;98948.25;5095627;28;20527;-81
2021/12/13 03:22:26;;;;;;;26.67;16.07;;;4.70;99.90;;;3.10;100.00;98934.63;5065427;28;20599;-80
2021/12/13 03:25:13;;;;;;;26.63;16.37;;;4.70;99.90;;;3.23;100.00;98963.72;5102554;28;20457;-80
2021/12/13 03:28:03;;;;;;;25.13;15.83;;;4.70;99.90;;;3.11;100.00;98949.69;5100891;28;20463;-77
2021/12/13 03:30:35;;;;;;;28.20;17.97;;;4.70;99.90;;;3.26;100.00;98949.22;5130787;27;20463;-82
2021/12/13 03:33:07;;;;;;;24.00;17.37;;;4.70;99.90;;;3.22;100.00;98929.13;5092306;28;20440;-81
2021/12/13 03:35:40;;;;;;;27.70;16.87;;;4.80;99.90;;;3.33;100.00;98969.03;5106190;28;20484;-80
2021/12/13 03:38:12;;;;;;;29.43;17.70;;;4.80;99.90;;;3.21;100.00;98975.53;5097315;28;20479;-80
2021/12/13 03:40:41;;;;;;;28.07;16.90;;;4.70;99.90;;;3.20;100.00;98973.84;5096300;28;20464;-78
2021/12/13 03:43:13;;;;;;;30.00;18.20;;;4.60;99.90;;;3.15;100.00;98968.09;5100033;28;20460;-81
2021/12/13 03:45:46;;;;;;;31.00;17.40;;;4.60;99.90;;;3.17;100.00;98971.47;5120140;28;21021;-80
2021/12/13 03:48:19;;;;;;;34.67;17.33;;;4.70;99.90;;;3.08;100.00;98970.50;5091019;28;20472;-80
2021/12/13 03:50:54;;;;;;;27.30;17.40;;;4.60;99.90;;;3.35;100.00;98976.91;5091742;28;20440;-80
2021/12/13 03:53:26;;;;;;;30.47;19.10;;;4.70;99.90;;;3.17;100.00;98964.28;5108186;28;20452;-81
2021/12/13 03:56:02;;;;;;;32.27;18.77;;;4.80;99.90;;;3.44;100.00;98977.88;5108671;28;20460;-80
2021/12/13 03:58:36;;;;;;;36.30;21.70;;;4.80;99.90;;;3.46;100.00;98981.22;5106543;28;20470;-79
2021/12/13 04:01:10;;;;;;;34.30;20.13;;;4.90;99.90;;;3.40;100.00;98980.81;5109453;28;20455;-81
2021/12/13 04:03:40;;;;;;;28.87;18.33;;;4.80;99.90;;;3.31;100.00;98960.31;5112774;28;20467;-79
2021/12/13 04:06:26;;;;;;;24.10;17.37;;;4.80;99.90;;;3.39;100.00;98957.75;5108549;28;20442;-82
2021/12/13 04:09:31;;;;;;;27.70;18.50;;;4.80;99.90;;;3.49;100.00;98968.44;5111615;28;20457;-80
2021/12/13 04:12:07;;;;;;;37.67;19.03;;;4.90;99.90;;;3.38;100.00;98977.44;5109095;28;20448;-82
2021/12/13 04:14:48;;;;;;;31.80;18.37;;;4.90;99.90;;;3.29;100.00;98981.00;5107340;28;20456;-80
2021/12/13 04:17:36;;;;;;;27.57;18.10;;;4.80;99.90;;;3.37;100.00;98981.09;5122207;27;20456;-81
2021/12/13 04:20:10;;;;;;;29.97;18.27;;;4.80;99.90;;;3.48;100.00;98989.94;5102352;28;20448;-83
2021/12/13 04:22:41;;;;;;;28.93;19.37;;;4.80;99.90;;;3.32;100.00;98988.72;5117580;28;21257;-80
2021/12/13 04:25:14;;;;;;;30.03;18.50;;;4.70;99.90;;;3.49;100.00;98978.25;5097321;28;20451;-81
2021/12/13 04:27:48;;;;;;;34.90;19.80;;;4.80;99.90;;;3.61;100.00;98986.91;5096639;28;20479;-79
2021/12/13 04:30:24;;;;;;;25.57;17.57;;;4.80;99.90;;;3.60;100.00;98980.75;5072348;28;20464;-79
2021/12/13 04:32:59;;;;;;;28.33;18.23;;;4.90;99.90;;;3.38;100.00;98979.28;5093868;28;20451;-80
2021/12/13 04:35:29;;;;;;;27.33;16.17;;;4.80;99.90;;;3.75;100.00;98972.25;5071873;28;20880;-79
2021/12/13 04:38:00;;;;;;;25.83;17.30;;;5.10;99.90;;;3.67;100.00;98968.47;5092710;28;20563;-79
2021/12/13 04:40:35;;;;;;;25.83;16.73;;;5.10;99.90;;;3.81;100.00;98990.34;5097604;28;20460;-81
2021/12/13 04:43:08;;;;;;;26.77;16.00;;;5.20;99.90;;;3.47;100.00;98996.28;5104131;28;20473;-80
2021/12/13 04:45:40;;;;;;;28.60;17.20;;;5.00;99.90;;;3.86;100.00;98996.09;5095684;28;20452;-80
2021/12/13 04:48:14;;;;;;;27.60;17.50;;;5.00;99.90;;;3.69;100.00;98998.56;5092604;28;20495;-79
2021/12/13 04:50:49;;;;;;;28.70;18.17;;;5.10;99.90;;;3.59;100.00;98984.41;5092728;28;20497;-80
2021/12/13 04:53:22;;;;;;;29.30;19.70;;;5.00;99.90;;;3.77;100.00;99003.16;5096692;28;20459;-79
2021/12/13 04:55:51;;;;;;;29.97;18.77;;;5.00;99.90;;;3.71;100.00;98997.56;5085825;28;20440;-79
2021/12/13 04:58:21;;;;;;;29.30;17.87;;;5.00;99.90;;;3.52;100.00;99005.53;5094274;28;20451;-81
2021/12/13 05:00:54;;;;;;;25.67;17.30;;;5.00;99.90;;;3.31;100.00;99008.41;5085408;28;20452;-79
2021/12/13 05:03:28;;;;;;;27.13;16.80;;;4.80;99.90;;;3.22;100.00;99003.91;5093921;28;20456;-79
2021/12/13 05:05:58;;;;;;;25.80;16.93;;;4.70;99.90;;;3.21;100.00;99012.91;5098143;28;20455;-80
2021/12/13 05:08:32;;;;;;;30.70;17.33;;;4.70;99.90;;;3.17;100.00;99016.88;5098649;28;20505;-81
2021/12/13 05:11:06;;;;;;;26.57;16.73;;;4.70;99.90;;;3.14;100.00;99001.13;5098088;28;20463;-79
2021/12/13 05:13:40;;;;;;;25.30;15.67;;;4.60;99.90;;;3.27;100.00;99001.69;5102476;28;20464;-79
2021/12/13 05:16:10;;;;;;;25.40;15.17;;;4.80;99.90;;;3.26;100.00;99005.31;5100922;28;20469;-79
2021/12/13 05:18:46;;;;;;;22.37;15.50;;;4.80;99.90;;;3.44;100.00;99021.44;5101415;28;20508;-79
2021/12/13 05:21:19;;;;;;;24.17;14.17;;;4.70;99.90;;;3.32;100.00;99018.09;5099241;28;20494;-79
2021/12/13 05:23:55;;;;;;;26.30;15.40;;;4.70;99.90;;;3.10;100.00;99017.41;5113418;28;20469;-81
2021/12/13 05:26:33;;;;;;;26.43;14.23;;;4.70;99.90;;;3.12;100.00;99027.97;5116595;28;20478;-80
2021/12/13 05:29:05;;;;;;;21.53;13.50;;;4.60;99.90;;;3.31;100.00;99035.13;5121100;28;20481;-81
2021/12/13 05:31:33;;;;;;;24.37;14.73;;;4.60;99.90;;;3.28;100.00;99048.78;5135616;27;20509;-81
2021/12/13 05:34:06;;;;;;;22.20;14.77;;;4.70;99.90;;;3.18;100.00;99027.38;5122320;28;20436;-82
2021/12/13 05:36:37;;;;;;;25.47;14.33;;;4.60;99.90;;;3.32;100.00;99051.97;5112936;28;20856;-80
2021/12/13 05:39:12;;;;;;;20.00;14.37;;;4.60;99.90;;;3.22;100.00;99052.00;5105255;28;20461;-76
2021/12/13 05:41:41;;;;;;;22.10;13.67;;;4.60;99.90;;;3.35;100.00;99039.19;5082485;28;20875;-76
2021/12/13 05:44:12;;;;;;;20.77;14.17;;;4.80;99.90;;;3.37;100.00;99058.56;5091420;28;21061;-76
2021/12/13 05:46:43;;;;;;;24.17;14.73;;;4.80;99.90;;;3.22;100.00;99047.50;5086098;28;20448;-76
2021/12/13 05:49:19;;;;;;;25.03;15.63;;;4.70;99.90;;;3.12;100.00;99049.34;5097451;28;20460;-75
2021/12/13 05:51:51;;;;;;;27.60;15.37;;;4.60;99.90;;;3.27;100.00;99060.44;5093609;28;20576;-75
2021/12/13 05:54:27;;;;;;;25.73;14.93;;;4.70;99.90;;;3.30;100.00;99070.84;5105683;27;20441;-77
2021/12/13 05:57:01;;;;;;;23.37;14.50;;;4.70;99.90;;;3.25;100.00;99073.06;5088817;28;21433;-76
2021/12/13 05:59:36;;;;;;;29.40;16.43;;;4.70;99.90;;;3.16;100.00;99063.25;5086401;28;20743;-76
2021/12/13 06:02:11;;;;;;;23.53;15.23;;;4.70;99.90;;;3.33;100.00;99069.69;5090420;28;20463;-76
2021/12/13 06:04:45;;;;;;;22.83;15.20;;;4.70;99.90;;;3.38;100.00;99075.47;5086880;28;20466;-75
2021/12/13 06:07:22;;;;;;;21.07;14.83;;;4.80;99.90;;;3.25;100.00;99057.91;5091840;28;20464;-76
2021/12/13 06:09:59;;;;;;;27.23;17.10;;;4.80;99.90;;;3.58;100.00;99084.28;5082902;28;20451;-77
2021/12/13 06:12:36;;;;;;;25.87;14.70;;;4.90;99.90;;;3.59;100.00;99067.25;5092588;28;20463;-76
2021/12/13 06:15:28;;;;;;;24.40;14.50;;;5.00;99.90;;;3.35;100.00;99055.22;5091668;28;20458;-76
2021/12/13 06:18:12;;;;;;;23.00;15.10;;;4.90;99.90;;;3.39;100.00;99085.16;5107081;28;20448;-75
2021/12/13 06:20:45;;;;;;;22.60;15.27;;;4.80;99.90;;;3.26;100.00;99066.75;5092390;28;20873;-76
2021/12/13 06:23:17;;;;;;;23.70;16.43;;;4.80;99.90;;;3.45;100.00;99083.75;5096066;28;20536;-70
2021/12/13 06:25:48;;;;;;;23.40;15.63;;;4.80;99.90;;;3.35;100.00;99057.88;5114091;27;20457;-75
2021/12/13 06:28:23;;;;;;;24.30;16.30;;;4.90;99.90;;;3.30;100.00;99065.50;5095039;28;20475;-82
2021/12/13 06:31:00;;;;;;;19.40;14.70;;;4.90;99.90;;;3.52;100.00;99084.84;5095896;28;20440;-77
2021/12/13 06:33:29;;;;;;;23.70;16.27;;;4.90;99.90;;;3.52;100.00;99074.16;5094330;28;20455;-75
2021/12/13 06:36:00;;;;;;;21.80;14.40;;;4.90;99.90;;;3.61;100.00;99072.44;5104149;27;20452;-69
2021/12/13 06:38:49;;;;;;;21.63;14.97;;;5.10;99.90;;;3.80;100.00;99092.94;5087408;28;20484;-69
2021/12/13 06:41:32;;;;;;;23.13;15.70;;;5.10;99.90;;;3.59;100.00;99096.66;5085089;28;20456;-68
2021/12/13 06:44:02;;;;;;;22.67;14.83;;;5.00;99.90;;;3.54;100.00;99098.91;5085070;28;20459;-68
2021/12/13 06:46:37;;;;;;;22.20;14.80;;;5.00;99.90;;;3.70;100.00;99109.00;5089283;28;20894;-67
2021/12/13 06:49:21;;;;;;;22.30;14.77;;;5.00;99.90;;;3.53;100.00;99098.06;5088900;28;20471;-69
2021/12/13 06:51:54;;;;;;;23.80;14.83;;;5.00;99.90;;;3.58;100.00;99089.63;5079893;28;20474;-69
2021/12/13 06:54:31;;;;;;;21.33;15.20;;;5.00;99.90;;;3.67;100.00;99094.09;5087211;28;20453;-71
2021/12/13 06:57:03;;;;;;;19.10;14.13;;;5.00;99.90;;;3.91;99.73;99098.13;5082605;28;21071;-71
2021/12/13 06:59:33;;;;;;;21.20;14.90;;;5.20;99.90;;;3.80;99.33;99103.63;5096501;28;20460;-70
2021/12/13 07:02:13;;;;;;;20.90;14.63;;;5.20;99.90;;;3.82;100.00;99098.97;5087683;28;20455;-70
2021/12/13 07:05:01;;;;;;;23.70;15.63;;;5.10;99.90;;;3.82;100.00;99101.66;5091400;28;20448;-70
2021/12/13 07:07:41;;;;;;;21.13;14.70;;;5.20;99.90;;;3.69;100.00;99097.47;5092550;28;20456;-70
2021/12/13 07:10:17;;;;;;;21.97;15.43;;;5.10;99.90;;;3.85;100.00;99112.06;5100765;28;20459;-69
2021/12/13 07:12:49;;;;;;;23.10;15.60;;;5.10;99.90;;;3.93;100.00;99114.84;5080772;28;20460;-71
2021/12/13 07:15:41;;;;;;;23.93;15.70;;;5.20;99.90;;;3.76;100.00;99118.28;5099666;27;20457;-70
2021/12/13 07:18:15;;;;;;;24.23;16.67;;;5.10;99.90;;;3.71;100.00;99123.19;5085623;28;20467;-68
2021/12/13 07:20:50;;;;;;;24.10;15.93;;;5.10;99.90;;;3.99;99.85;99128.63;5084381;28;20968;-70
2021/12/13 07:23:18;;;;;;;21.13;15.20;;;5.30;99.90;;;3.99;99.77;99117.94;5083121;28;20476;-70
2021/12/13 07:25:50;;;;;;;19.07;14.43;;;5.30;99.90;;;3.86;99.54;99123.59;5086427;28;20467;-70
2021/12/13 07:28:33;;;;;;;22.03;14.90;;;5.20;99.90;;;4.01;99.71;99119.47;5081624;28;20487;-71
2021/12/13 07:31:03;;;;;;;20.07;15.17;;;5.30;99.90;;;3.91;98.98;99121.31;5080283;28;20444;-68
2021/12/13 07:33:44;;;;;;;20.37;14.47;;;5.30;99.90;;;3.87;100.00;99114.59;5079062;28;20858;-69
2021/12/13 07:36:21;;;;;;;18.90;14.87;;;5.20;99.90;;;4.13;99.96;99114.78;5077168;28;20460;-70
2021/12/13 07:38:52;;;;;;;23.03;15.70;;;5.30;99.90;;;4.05;99.75;99112.00;5084145;28;20451;-69
2021/12/13 07:41:20;;;;;;;22.10;14.90;;;5.40;99.90;;;4.12;98.09;99123.78;5083202;28;20523;-69
2021/12/13 07:43:48;;;;;;;24.27;16.53;;;5.50;99.90;;;4.11;98.93;99112.28;5089204;28;20463;-69
2021/12/13 07:46:29;;;;;;;24.07;15.53;;;5.50;99.90;;;4.16;98.68;99119.00;5085381;28;20872;-70
2021/12/13 07:49:02;;;;;;;25.80;17.53;;;5.50;99.90;;;4.16;98.93;99111.81;5088905;28;20475;-69
2021/12/13 07:51:34;;;;;;;21.37;15.00;;;5.60;99.90;;;4.03;99.25;99114.00;5101318;27;20504;-69
2021/12/13 07:54:09;;;;;;;24.53;15.83;;;5.50;99.60;;;4.08;98.60;99127.75;5089117;28;20455;-70
2021/12/13 07:56:48;;;;;;;25.80;17.53;;;5.60;98.80;;;4.15;98.68;99126.16;5085292;28;20463;-69
2021/12/13 07:59:24;;;;;;;21.80;16.73;;;5.50;99.90;;;4.42;98.41;99131.72;5086983;28;20463;-69
2021/12/13 08:01:56;;;;;;;25.17;16.30;;;5.70;99.60;;;4.46;97.58;99131.25;5088416;28;20536;-75
2021/12/13 08:04:29;;;;;;;21.53;16.53;;;5.70;98.60;;;4.35;97.10;99126.94;5088334;28;21087;-76
2021/12/13 08:07:01;;;;;;;25.50;16.77;;;5.70;98.00;;;4.30;96.03;99081.06;5088477;28;20443;-77
2021/12/13 08:09:31;;;;;;;21.17;16.03;;;5.90;97.60;;;4.44;97.11;99138.56;5087823;28;20465;-76
2021/12/13 08:12:03;;;;;;;25.53;17.17;;;5.80;97.10;;;4.42;96.33;99127.19;5084854;28;20609;-77
2021/12/13 08:14:35;;;;;;;22.90;15.90;;;5.80;96.50;;;4.61;96.51;99144.13;5086703;28;20521;-76
2021/12/13 08:17:12;;;;;;;25.87;17.47;;;5.90;96.70;;;4.56;96.51;99144.59;5101048;28;20961;-76
2021/12/13 08:19:41;;;;;;;21.07;16.93;;;5.90;96.80;;;4.33;97.66;99153.00;5092345;28;20454;-76
2021/12/13 08:22:15;;;;;;;25.00;16.83;;;5.80;97.70;;;4.47;97.87;99154.34;5086877;28;21032;-76
2021/12/13 08:24:48;;;;;;;20.07;15.47;;;5.90;98.70;;;4.73;97.91;99134.91;5086592;28;20444;-79
2021/12/13 08:27:24;;;;;;;20.10;15.83;;;6.00;99.80;;;4.88;96.68;99153.13;5083785;28;20453;-77
2021/12/13 08:29:51;;;;;;;21.03;15.50;;;6.10;97.00;;;4.69;97.13;99154.94;5087207;28;20529;-76
2021/12/13 08:32:23;;;;;;;22.50;16.00;;;6.10;97.10;;;4.62;97.81;99137.78;5086418;28;20478;-76
2021/12/13 08:34:57;;;;;;;18.80;13.73;;;6.10;97.50;;;4.75;96.79;99143.63;5087652;28;20565;-76
2021/12/13 08:37:28;;;;;;;21.60;16.23;;;6.20;97.30;;;5.02;96.26;99135.72;5087753;28;20484;-76
2021/12/13 08:40:01;;;;;;;19.13;15.30;;;6.30;97.00;;;5.30;94.92;99144.50;5088960;28;20479;-76
2021/12/13 08:42:32;;;;;;;19.67;15.53;;;6.50;95.70;;;5.30;95.08;99144.50;5085734;28;20444;-69
2021/12/13 08:45:09;;;;;;;21.10;15.17;;;6.50;95.00;;;5.33;94.55;99146.88;5085129;28;20540;-69
2021/12/13 08:47:44;;;;;;;17.90;15.00;;;6.60;94.50;;;5.32;95.06;99152.41;5082699;28;20482;-68
2021/12/13 08:50:20;;;;;;;18.48;15.25;;;6.60;94.80;;;5.52;94.70;99153.06;5090436;28;20517;-74
2021/12/13 08:52:54;;;;;;;18.10;14.53;;;6.70;94.30;;;5.73;92.75;99149.22;5088618;28;20280;-70
2021/12/13 08:55:29;;;;;;;16.33;13.90;;;6.90;93.20;;;5.68;92.74;99142.47;5092888;28;20543;-77
2021/12/13 08:58:03;;;;;;;15.40;13.70;;;6.90;93.00;;;5.72;92.24;99153.72;5079128;28;20511;-79
2021/12/13 09:00:59;;;;;;;19.93;13.63;;;6.90;92.50;;;5.87;92.07;99145.97;5097178;28;20462;-76
2021/12/13 09:03:35;;;;;;;16.40;12.57;;;7.00;92.80;;;5.26;92.05;99084.19;5092665;28;20453;-78
2021/12/13 09:06:12;;;;;;;15.43;12.87;;;7.00;92.20;;;5.65;93.08;99158.88;5096839;28;21152;-80
2021/12/13 09:08:44;;;;;;;15.73;12.40;;;7.00;92.70;;;6.00;91.70;99163.50;5094659;28;20609;-78
2021/12/13 09:11:26;;;;;;;17.40;12.90;;;7.10;92.40;;;6.09;90.11;99150.00;5095110;28;20460;-78
2021/12/13 09:13:59;;;;;;;14.93;12.47;;;7.30;90.80;;;5.98;89.75;99157.41;5080117;28;20525;-79
2021/12/13 09:16:43;;;;;;;15.50;12.80;;;7.30;90.10;;;5.96;89.15;99123.53;5095561;28;20464;-78
2021/12/13 09:19:27;;;;;;;16.17;13.33;;;7.40;89.80;;;6.12;90.15;99158.72;5102496;28;20444;-79
2021/12/13 09:22:06;;;;;;;14.00;12.07;;;7.50;90.20;;;6.11;89.47;99168.59;5099640;28;20551;-78
2021/12/13 09:24:41;;;;;;;15.77;12.27;;;7.40;90.10;;;6.02;90.14;99174.94;5099657;28;20560;-78
2021/12/13 09:27:29;;;;;;;14.73;12.13;;;7.40;90.20;;;6.15;89.21;99169.13;5100565;28;20455;-79
2021/12/13 09:30:06;;;;;;;11.90;10.70;;;7.40;90.00;;;6.26;88.98;99176.06;5109277;28;21028;-78
2021/12/13 09:32:41;;;;;;;12.77;10.40;;;7.50;89.50;;;6.32;88.66;99175.44;5072552;28;20440;-78
2021/12/13 09:35:34;;;;;;;15.77;11.83;;;7.50;89.30;;;6.29;88.73;99165.88;5095483;28;20942;-78
2021/12/13 09:38:23;;;;;;;13.50;11.60;;;7.50;88.70;;;6.22;88.14;99143.38;5102737;28;20910;-80
2021/12/13 09:40:56;;;;;;;14.40;12.30;;;7.60;88.00;;;6.22;88.41;99138.81;5101787;28;20485;-79
2021/12/13 09:43:28;;;;;;;14.40;11.10;;;7.60;88.30;;;6.23;89.07;99170.03;5097709;28;20962;-80
2021/12/13 09:45:56;;;;;;;14.33;11.30;;;7.60;89.00;;;6.19;88.87;99155.25;5094855;28;20448;-80
2021/12/13 09:48:29;;;;;;;14.40;11.23;;;7.60;88.90;;;5.99;90.95;99151.06;5098967;28;20468;-78
2021/12/13 09:51:05;;;;;;;14.00;11.07;;;7.50;90.10;;;6.33;89.61;99167.22;5098467;28;20440;-79
2021/12/13 09:53:40;;;;;;;13.13;11.20;;;7.50;90.40;;;6.48;87.81;99163.94;5108510;27;20472;-75
2021/12/13 09:56:14;;;;;;;12.50;10.07;;;7.70;88.10;;;6.48;88.16;99170.16;5088652;28;20880;-74
2021/12/13 09:58:47;;;;;;;15.60;13.90;;;7.70;88.30;;;6.34;87.88;99162.72;5080493;28;20448;-75
2021/12/13 10:01:21;;;;;;;13.83;12.37;;;7.70;87.80;;;6.21;89.72;99160.44;5089365;28;20202;-74
2021/12/13 10:03:55;;;;;;;17.20;12.67;;;7.60;88.90;;;5.97;91.61;99159.28;5082514;28;20459;-75
2021/12/13 10:06:29;;;;;;;14.38;12.40;;;7.40;90.50;;;6.22;89.88;99162.16;5105470;28;20515;-75
2021/12/13 10:09:07;;;;;;;13.70;11.30;;;7.40;90.40;;;6.18;89.92;99153.56;5090180;28;20209;-75
2021/12/13 10:11:40;;;;;;;15.50;10.83;;;7.50;90.10;;;6.62;88.01;99149.06;5092976;28;20448;-75
2021/12/13 10:14:11;;;;;;;15.10;12.40;;;7.70;89.90;;;6.84;87.44;99152.16;5107995;27;20795;-74
2021/12/13 10:16:42;;;;;;;14.13;11.80;;;7.90;88.30;;;6.68;86.67;99126.94;5083048;28;20496;-74
2021/12/13 10:19:17;;;;;;;13.03;11.30;;;8.00;87.00;;;6.95;86.69;99154.53;5094697;28;20460;-74
2021/12/13 10:21:47;;;;;;;12.23;10.87;;;8.10;87.20;;;7.09;85.58;99143.16;5092114;28;20799;-74
2021/12/13 10:24:23;;;;;;;13.13;11.30;;;8.20;86.60;;;7.06;85.51;99146.19;5094481;28;20852;-74
2021/12/13 10:26:54;;;;;;;11.13;10.03;;;8.20;85.50;;;7.06;85.29;99139.94;5109093;28;20444;-75
2021/12/13 10:29:24;;;;;;;12.23;10.90;;;8.30;85.10;;;7.15;85.45;99143.50;5095942;28;20471;-74
2021/12/13 10:31:57;;;;;;;12.80;11.20;;;8.40;85.20;;;6.89;86.08;99114.88;5094878;28;20804;-75
2021/12/13 10:34:30;;;;;;;12.33;11.13;;;8.20;85.60;;;6.83;86.91;99134.34;5091060;28;20507;-75
2021/12/13 10:37:02;;;;;;;12.13;10.50;;;8.20;85.60;;;6.81;86.67;99131.81;5104814;28;20503;-73
2021/12/13 10:39:37;;;;;;;11.80;10.60;;;8.00;86.80;;;6.70;87.37;99141.03;5093190;28;20508;-73
2021/12/13 10:42:11;;;;;;;11.93;10.60;;;7.90;87.00;;;6.58;87.12;99118.16;5084781;28;20457;-76
2021/12/13 10:44:44;;;;;;;11.60;9.73;;;8.00;87.10;;;6.68;86.96;99129.63;5089607;28;20864;-75
2021/12/13 10:47:16;;;;;;;11.77;10.57;;;8.00;86.40;;;6.76;87.14;99129.66;5091763;28;20488;-76
2021/12/13 10:49:47;;;;;;;16.10;11.93;;;8.00;86.90;;;6.89;87.38;99128.31;5090814;28;20503;-75
2021/12/13 10:52:19;;;;;;;13.03;11.70;;;8.00;87.10;;;6.95;86.69;99128.50;5090635;28;20535;-76
2021/12/13 10:54:53;;;;;;;13.77;11.80;;;8.20;86.70;;;6.98;86.09;99130.03;5090631;28;20581;-76
2021/12/13 10:57:24;;;;;;;14.50;12.57;;;8.20;86.00;;;6.95;85.97;99133.06;5090059;28;20961;-75
2021/12/13 10:59:53;;;;;;;13.73;11.80;;;8.20;85.20;;;6.86;86.76;99107.16;5091134;28;20449;-74